Time;durP1;ratioP1;P1;durP2;ratioP2;P2;SDS_P1;SDS_P2;PMS_P1;PMS_P2;Temp;Humidity;BMP_temperature;BMP_pressure;BME280_temperature;BME280_humidity;BME280_pressure;Samples;Min_cycle;Max_cycle;Signal;HPM_P1;HPM_P2
2022/08/13 00:01:25;;;;;;;3.85;3.28;;;;;;;;;;4985163;28;20018;-65
2022/08/13 00:03:55;;;;;;;3.42;3.13;;;;;;;;;;4985302;28;20064;-66
2022/08/13 00:09:08;;;;;;;3.22;2.63;;;;;;;;;;4981286;28;20034;-64
2022/08/13 00:14:26;;;;;;;3.28;2.97;;;;;;;;;;4981629;28;20093;-64
2022/08/13 00:16:54;;;;;;;3.15;2.95;;;;;;;;;;4978288;28;20026;-64
2022/08/13 00:19:19;;;;;;;5.28;3.20;;;;;;;;;;4980694;28;20046;-65
2022/08/13 00:21:46;;;;;;;3.10;2.90;;;;;;;;;;4985326;28;20023;-65
2022/08/13 00:24:11;;;;;;;2.78;2.67;;;;;;;;;;4977255;28;20091;-65
2022/08/13 00:26:39;;;;;;;3.78;3.50;;;;;;;;;;4977044;28;20023;-67
2022/08/13 00:29:09;;;;;;;3.90;3.08;;;;;;;;;;4983743;28;20061;-66
2022/08/13 00:31:38;;;;;;;4.30;3.63;;;;;;;;;;4983725;28;20074;-66
2022/08/13 00:34:03;;;;;;;2.58;2.47;;;;;;;;;;4982770;28;20027;-66
2022/08/13 00:36:31;;;;;;;4.03;3.10;;;;;;;;;;4983318;28;20382;-65
2022/08/13 00:38:56;;;;;;;3.28;3.03;;;;;;;;;;4982967;28;20065;-65
2022/08/13 00:41:40;;;;;;;4.75;3.00;;;;;;;;;;4983423;28;20420;-66
2022/08/13 00:44:06;;;;;;;3.75;3.40;;;;;;;;;;4979504;28;20045;-66
2022/08/13 00:46:32;;;;;;;2.88;2.67;;;;;;;;;;4976823;28;20484;-65
2022/08/13 00:48:57;;;;;;;3.00;2.90;;;;;;;;;;4981360;28;20018;-66
2022/08/13 00:51:24;;;;;;;3.72;2.97;;;;;;;;;;4978494;28;20465;-66
2022/08/13 00:53:50;;;;;;;4.25;3.63;;;;;;;;;;4977195;28;20041;-65
2022/08/13 00:56:17;;;;;;;3.45;3.15;;;;;;;;;;4999562;28;20018;-64
2022/08/13 00:58:42;;;;;;;3.00;2.75;;;;;;;;;;4996519;28;20026;-64
2022/08/13 01:01:08;;;;;;;2.97;2.78;;;;;;;;;;5002024;28;20357;-64
2022/08/13 01:03:38;;;;;;;3.55;2.80;;;;;;;;;;5003458;28;20032;-65
2022/08/13 01:06:04;;;;;;;4.15;3.00;;;;;;;;;;5000291;28;20461;-66
2022/08/13 01:08:34;;;;;;;3.85;3.45;;;;;;;;;;4996145;28;20026;-66
2022/08/13 01:11:05;;;;;;;3.22;2.75;;;;;;;;;;4998627;28;20041;-64
2022/08/13 01:13:33;;;;;;;2.95;2.60;;;;;;;;;;4998736;28;20060;-66
2022/08/13 01:15:59;;;;;;;3.00;2.80;;;;;;;;;;5001333;28;20460;-64
2022/08/13 01:18:24;;;;;;;3.22;2.92;;;;;;;;;;5007389;28;20084;-65
2022/08/13 01:21:02;;;;;;;4.13;2.70;;;;;;;;;;5005806;28;20494;-65
2022/08/13 01:23:30;;;;;;;2.83;2.45;;;;;;;;;;5000402;28;20037;-65
2022/08/13 01:25:59;;;;;;;3.60;3.40;;;;;;;;;;5003293;28;20033;-64
2022/08/13 01:28:27;;;;;;;3.10;2.90;;;;;;;;;;4999856;28;20031;-65
2022/08/13 01:30:53;;;;;;;3.50;2.80;;;;;;;;;;5001684;28;20141;-64
2022/08/13 01:33:18;;;;;;;2.67;2.47;;;;;;;;;;5006391;28;20104;-65
2022/08/13 01:35:44;;;;;;;3.67;3.42;;;;;;;;;;5005396;28;20159;-67
2022/08/13 01:38:10;;;;;;;3.03;2.83;;;;;;;;;;5005740;28;20123;-66
2022/08/13 01:40:35;;;;;;;4.03;3.53;;;;;;;;;;4999619;28;20027;-64
2022/08/13 01:43:01;;;;;;;3.58;3.28;;;;;;;;;;4998490;28;20639;-65
2022/08/13 01:45:29;;;;;;;4.53;3.35;;;;;;;;;;4990499;28;20332;-65
2022/08/13 01:50:38;;;;;;;3.08;2.88;;;;;;;;;;5001890;28;20029;-64
2022/08/13 01:53:08;;;;;;;3.65;3.35;;;;;;;;;;4999874;28;20029;-65
2022/08/13 01:55:43;;;;;;;2.70;2.60;;;;;;;;;;5000555;28;20151;-64
2022/08/13 01:58:10;;;;;;;3.63;3.40;;;;;;;;;;5005032;28;20105;-64
2022/08/13 02:00:39;;;;;;;2.88;2.78;;;;;;;;;;5005683;28;20037;-66
2022/08/13 02:03:09;;;;;;;3.90;3.38;;;;;;;;;;5004940;28;20030;-66
2022/08/13 02:05:38;;;;;;;2.80;2.58;;;;;;;;;;5003997;28;20467;-66
2022/08/13 02:08:03;;;;;;;4.47;2.95;;;;;;;;;;5000673;28;20026;-65
2022/08/13 02:10:28;;;;;;;3.20;3.00;;;;;;;;;;4997621;28;20643;-63
2022/08/13 02:12:54;;;;;;;5.15;2.90;;;;;;;;;;4984611;28;20022;-67
2022/08/13 02:15:19;;;;;;;2.85;2.65;;;;;;;;;;4997581;28;20033;-66
2022/08/13 02:17:45;;;;;;;4.10;2.72;;;;;;;;;;5002599;28;20111;-65
2022/08/13 02:20:17;;;;;;;2.95;2.75;;;;;;;;;;5003737;28;20025;-64
2022/08/13 02:22:45;;;;;;;3.10;2.90;;;;;;;;;;5006322;28;20033;-64
2022/08/13 02:25:12;;;;;;;3.15;2.88;;;;;;;;;;5001753;28;20056;-65
2022/08/13 02:27:38;;;;;;;3.17;2.97;;;;;;;;;;4996931;28;20014;-64
2022/08/13 02:30:05;;;;;;;3.58;2.90;;;;;;;;;;4998973;28;20025;-66
2022/08/13 02:32:33;;;;;;;2.95;2.75;;;;;;;;;;4997687;28;20060;-65
2022/08/13 02:34:58;;;;;;;6.03;2.70;;;;;;;;;;4997776;28;20065;-65
2022/08/13 02:37:24;;;;;;;3.92;3.17;;;;;;;;;;5002789;28;20121;-65
2022/08/13 02:39:50;;;;;;;3.97;3.70;;;;;;;;;;4996402;28;20022;-66
2022/08/13 02:42:15;;;;;;;3.67;2.92;;;;;;;;;;4999667;28;20029;-64
2022/08/13 02:44:41;;;;;;;3.47;3.28;;;;;;;;;;5004161;28;20824;-64
2022/08/13 02:47:07;;;;;;;3.00;2.80;;;;;;;;;;5000379;28;20491;-64
2022/08/13 02:49:33;;;;;;;3.20;3.00;;;;;;;;;;4997985;28;20519;-64
2022/08/13 02:51:59;;;;;;;3.50;2.90;;;;;;;;;;5003377;28;20022;-66
2022/08/13 02:54:25;;;;;;;3.28;2.97;;;;;;;;;;5001103;28;20034;-66
2022/08/13 02:56:50;;;;;;;3.25;3.05;;;;;;;;;;5004549;28;20022;-65
2022/08/13 02:59:16;;;;;;;3.10;2.80;;;;;;;;;;5003143;28;20101;-65
2022/08/13 03:01:41;;;;;;;2.88;2.67;;;;;;;;;;5001322;28;20128;-65
2022/08/13 03:04:07;;;;;;;3.17;2.97;;;;;;;;;;4998662;28;20038;-65
2022/08/13 03:06:32;;;;;;;3.80;2.90;;;;;;;;;;5002359;28;20062;-65
2022/08/13 03:09:01;;;;;;;3.55;3.30;;;;;;;;;;5004375;28;20515;-65
2022/08/13 03:11:27;;;;;;;4.10;2.90;;;;;;;;;;4997111;28;20036;-65
2022/08/13 03:13:56;;;;;;;4.10;3.15;;;;;;;;;;4998917;28;20545;-66
2022/08/13 03:16:23;;;;;;;3.78;3.50;;;;;;;;;;5001262;28;20088;-66
2022/08/13 03:18:48;;;;;;;4.75;3.38;;;;;;;;;;4996971;28;20021;-65
2022/08/13 03:21:18;;;;;;;3.67;3.47;;;;;;;;;;5000786;28;20099;-65
2022/08/13 03:23:44;;;;;;;4.10;3.30;;;;;;;;;;4999708;28;20619;-65
2022/08/13 03:26:11;;;;;;;3.25;3.03;;;;;;;;;;4996323;28;20036;-65
2022/08/13 03:28:37;;;;;;;3.22;3.03;;;;;;;;;;5002364;28;20506;-66
2022/08/13 03:31:03;;;;;;;3.75;3.47;;;;;;;;;;4996783;28;20136;-65
2022/08/13 03:33:28;;;;;;;3.63;3.40;;;;;;;;;;4998205;28;20060;-66
2022/08/13 03:35:53;;;;;;;3.13;2.92;;;;;;;;;;4998282;28;20032;-66
2022/08/13 03:38:18;;;;;;;3.35;3.15;;;;;;;;;;4996273;28;20443;-66
2022/08/13 03:41:02;;;;;;;3.95;3.40;;;;;;;;;;4999721;28;20539;-65
2022/08/13 03:43:28;;;;;;;4.03;3.78;;;;;;;;;;4998372;28;20141;-65
2022/08/13 03:45:54;;;;;;;3.78;3.30;;;;;;;;;;5003377;28;20373;-67
2022/08/13 03:48:20;;;;;;;3.65;3.35;;;;;;;;;;4998188;28;20495;-65
2022/08/13 03:50:46;;;;;;;3.28;3.08;;;;;;;;;;4997356;28;20267;-64
2022/08/13 03:53:12;;;;;;;4.28;3.75;;;;;;;;;;5003207;28;20030;-66
2022/08/13 03:55:39;;;;;;;3.42;3.22;;;;;;;;;;5003477;28;20040;-65
2022/08/13 03:58:05;;;;;;;3.03;2.80;;;;;;;;;;5001772;28;20057;-65
2022/08/13 04:00:35;;;;;;;3.42;3.20;;;;;;;;;;4997568;28;20133;-63
2022/08/13 04:03:00;;;;;;;3.30;3.08;;;;;;;;;;4999419;28;20029;-64
2022/08/13 04:05:26;;;;;;;3.58;3.22;;;;;;;;;;5001987;28;20124;-64
2022/08/13 04:07:51;;;;;;;3.63;3.40;;;;;;;;;;5001721;28;20072;-64
2022/08/13 04:10:17;;;;;;;3.90;3.50;;;;;;;;;;5002803;28;20026;-63
2022/08/13 04:12:43;;;;;;;3.80;3.50;;;;;;;;;;4989631;28;20138;-64
2022/08/13 04:15:08;;;;;;;5.20;3.25;;;;;;;;;;4995802;28;20037;-64
2022/08/13 04:17:36;;;;;;;3.45;3.25;;;;;;;;;;4980943;28;20072;-64
2022/08/13 04:20:05;;;;;;;3.30;3.10;;;;;;;;;;4997829;28;20033;-64
2022/08/13 04:22:30;;;;;;;4.80;3.35;;;;;;;;;;4995850;28;20030;-64
2022/08/13 04:24:56;;;;;;;3.47;3.20;;;;;;;;;;5002445;28;20104;-65
2022/08/13 04:27:21;;;;;;;3.70;3.28;;;;;;;;;;4999730;28;20030;-64
2022/08/13 04:29:46;;;;;;;4.32;3.58;;;;;;;;;;4996091;28;20100;-65
2022/08/13 04:32:11;;;;;;;3.28;3.08;;;;;;;;;;4999471;28;20570;-69
2022/08/13 04:34:37;;;;;;;4.63;3.90;;;;;;;;;;4999616;28;20535;-64
2022/08/13 04:37:02;;;;;;;7.85;3.40;;;;;;;;;;4995344;28;20424;-64
2022/08/13 04:39:28;;;;;;;3.13;2.92;;;;;;;;;;4997258;28;20030;-64
2022/08/13 04:41:53;;;;;;;3.83;3.47;;;;;;;;;;4995228;28;20037;-65
2022/08/13 04:44:19;;;;;;;4.35;3.63;;;;;;;;;;4997775;28;20041;-65
2022/08/13 04:46:44;;;;;;;5.80;3.83;;;;;;;;;;4996089;28;20452;-67
2022/08/13 04:49:11;;;;;;;3.70;3.50;;;;;;;;;;4996031;28;20026;-68
2022/08/13 04:51:36;;;;;;;3.30;3.10;;;;;;;;;;5002998;28;20040;-72
2022/08/13 04:54:02;;;;;;;3.97;3.67;;;;;;;;;;5002276;28;20029;-66
2022/08/13 04:56:27;;;;;;;4.57;3.78;;;;;;;;;;4976355;28;20026;-68
2022/08/13 04:58:52;;;;;;;4.10;3.53;;;;;;;;;;4995041;28;20465;-66
2022/08/13 05:01:18;;;;;;;6.25;3.63;;;;;;;;;;4996866;28;20014;-66
2022/08/13 05:03:45;;;;;;;3.90;3.50;;;;;;;;;;4998179;28;20030;-66
2022/08/13 05:06:19;;;;;;;3.88;3.47;;;;;;;;;;4995025;28;20022;-62
2022/08/13 05:08:45;;;;;;;4.27;4.03;;;;;;;;;;4998594;28;20084;-61
2022/08/13 05:11:14;;;;;;;4.22;3.47;;;;;;;;;;4994338;28;20088;-62
2022/08/13 05:13:40;;;;;;;4.10;3.70;;;;;;;;;;4997923;28;20076;-62
2022/08/13 05:16:07;;;;;;;4.30;3.90;;;;;;;;;;4994257;28;20029;-62
2022/08/13 05:18:33;;;;;;;5.80;3.60;;;;;;;;;;4998041;28;20046;-62
2022/08/13 05:21:01;;;;;;;3.90;3.60;;;;;;;;;;4986001;28;20092;-62
2022/08/13 05:23:27;;;;;;;3.92;3.60;;;;;;;;;;4999269;28;20033;-61
2022/08/13 05:25:52;;;;;;;4.82;3.58;;;;;;;;;;4995345;28;20057;-62
2022/08/13 05:28:18;;;;;;;4.15;3.63;;;;;;;;;;4998758;28;20026;-62
2022/08/13 05:30:46;;;;;;;4.80;4.10;;;;;;;;;;4994665;28;20036;-61
2022/08/13 05:33:13;;;;;;;5.40;4.85;;;;;;;;;;4995724;28;20068;-64
2022/08/13 05:35:38;;;;;;;4.30;3.90;;;;;;;;;;4997746;28;20034;-63
2022/08/13 05:38:04;;;;;;;5.00;4.40;;;;;;;;;;4994391;28;20037;-62
2022/08/13 05:40:30;;;;;;;4.28;3.97;;;;;;;;;;4964415;28;20068;-63
2022/08/13 05:42:59;;;;;;;4.78;4.38;;;;;;;;;;4994507;28;20288;-62
2022/08/13 05:45:25;;;;;;;7.43;5.05;;;;;;;;;;4997685;28;20491;-66
2022/08/13 05:47:51;;;;;;;7.57;5.25;;;;;;;;;;4979058;28;20025;-70
2022/08/13 05:50:16;;;;;;;4.55;4.15;;;;;;;;;;4995480;28;20025;-62
2022/08/13 05:52:42;;;;;;;7.25;5.53;;;;;;;;;;4994922;28;20040;-61
2022/08/13 05:55:10;;;;;;;5.43;4.70;;;;;;;;;;4994968;28;20076;-60
2022/08/13 05:57:35;;;;;;;5.10;3.97;;;;;;;;;;5002080;28;20498;-61
2022/08/13 06:05:28;;;;;;;5.28;4.30;;;;;;;;;;5004303;28;20117;-63
2022/08/13 06:07:54;;;;;;;4.75;4.45;;;;;;;;;;5004570;28;20034;-62
2022/08/13 06:10:19;;;;;;;4.78;4.30;;;;;;;;;;4996997;28;20614;-63
2022/08/13 06:12:45;;;;;;;6.10;4.45;;;;;;;;;;4998197;28;20026;-62
2022/08/13 06:15:11;;;;;;;5.18;4.10;;;;;;;;;;4999879;28;20087;-62
2022/08/13 06:17:37;;;;;;;5.25;4.75;;;;;;;;;;4998899;28;20061;-62
2022/08/13 06:20:03;;;;;;;5.68;5.18;;;;;;;;;;5002405;28;20029;-64
2022/08/13 06:22:33;;;;;;;4.53;4.13;;;;;;;;;;5004682;28;20541;-63
2022/08/13 06:24:58;;;;;;;4.68;4.22;;;;;;;;;;5003427;28;20034;-62
2022/08/13 06:27:24;;;;;;;4.53;4.13;;;;;;;;;;5004685;28;20037;-62
2022/08/13 06:29:51;;;;;;;5.18;4.72;;;;;;;;;;5002285;28;20041;-62
2022/08/13 06:32:16;;;;;;;5.88;5.47;;;;;;;;;;5003530;28;20061;-62
2022/08/13 06:34:41;;;;;;;4.40;4.00;;;;;;;;;;5005417;28;20036;-64
2022/08/13 06:37:08;;;;;;;5.03;4.50;;;;;;;;;;4998897;28;20033;-63
2022/08/13 06:39:33;;;;;;;4.75;4.30;;;;;;;;;;4980615;28;20078;-64
2022/08/13 06:42:00;;;;;;;4.30;4.00;;;;;;;;;;5001662;28;20122;-64
2022/08/13 06:44:25;;;;;;;4.68;4.28;;;;;;;;;;4997567;28;20042;-64
2022/08/13 06:46:52;;;;;;;5.57;4.55;;;;;;;;;;5002325;28;20395;-64
2022/08/13 06:49:18;;;;;;;4.57;4.28;;;;;;;;;;5002982;28;20108;-63
2022/08/13 06:51:44;;;;;;;5.30;4.80;;;;;;;;;;5004222;28;20145;-64
2022/08/13 06:54:10;;;;;;;4.82;4.50;;;;;;;;;;5003425;28;20534;-60
2022/08/13 06:56:35;;;;;;;4.90;4.40;;;;;;;;;;5004114;28;20185;-63
2022/08/13 06:59:02;;;;;;;4.70;4.40;;;;;;;;;;5002263;28;20029;-63
2022/08/13 07:01:28;;;;;;;5.47;5.00;;;;;;;;;;4980209;28;20379;-63
2022/08/13 07:03:56;;;;;;;5.60;5.10;;;;;;;;;;4998107;28;20065;-63
2022/08/13 07:06:25;;;;;;;4.50;4.20;;;;;;;;;;5000071;28;20077;-63
2022/08/13 07:08:54;;;;;;;6.07;5.40;;;;;;;;;;4995690;28;20045;-63
2022/08/13 07:11:24;;;;;;;4.40;4.00;;;;;;;;;;5000175;28;20034;-62
2022/08/13 07:13:51;;;;;;;5.32;4.93;;;;;;;;;;5001840;28;20026;-64
2022/08/13 07:16:18;;;;;;;5.20;4.80;;;;;;;;;;4995696;28;20030;-64
2022/08/13 07:18:46;;;;;;;5.15;4.75;;;;;;;;;;4996759;28;20026;-62
2022/08/13 07:21:13;;;;;;;5.05;4.57;;;;;;;;;;4999724;28;20052;-63
2022/08/13 07:23:39;;;;;;;7.35;4.28;;;;;;;;;;4997676;28;20065;-62
2022/08/13 07:26:05;;;;;;;7.85;4.90;;;;;;;;;;5002347;28;20053;-61
2022/08/13 07:28:30;;;;;;;5.22;4.82;;;;;;;;;;5004277;28;20025;-64
2022/08/13 07:30:56;;;;;;;5.65;5.10;;;;;;;;;;5002967;28;20046;-62
2022/08/13 07:33:24;;;;;;;5.32;4.82;;;;;;;;;;5003234;28;20037;-64
2022/08/13 07:35:49;;;;;;;5.38;4.97;;;;;;;;;;4998235;28;20498;-63
2022/08/13 07:38:15;;;;;;;5.57;5.15;;;;;;;;;;4996134;28;20041;-63
2022/08/13 07:40:41;;;;;;;7.13;5.20;;;;;;;;;;4986334;28;20021;-63
2022/08/13 07:43:07;;;;;;;5.40;4.90;;;;;;;;;;5003204;28;20480;-63
2022/08/13 07:45:33;;;;;;;5.82;5.32;;;;;;;;;;5003504;28;20072;-63
2022/08/13 07:47:58;;;;;;;8.00;5.65;;;;;;;;;;5003400;28;20041;-64
2022/08/13 07:50:24;;;;;;;7.90;5.78;;;;;;;;;;5003788;28;20038;-63
2022/08/13 07:52:58;;;;;;;6.82;6.13;;;;;;;;;;5001462;28;20084;-64
2022/08/13 07:55:23;;;;;;;6.95;6.32;;;;;;;;;;4996239;28;20416;-63
2022/08/13 07:57:48;;;;;;;6.47;5.97;;;;;;;;;;4998867;28;20032;-63
2022/08/13 08:00:21;;;;;;;6.75;6.07;;;;;;;;;;4995768;28;20120;-63
2022/08/13 08:02:48;;;;;;;6.68;6.05;;;;;;;;;;4998040;28;20033;-63
2022/08/13 08:05:13;;;;;;;7.43;6.72;;;;;;;;;;5002680;28;20041;-63
2022/08/13 08:07:39;;;;;;;7.32;6.63;;;;;;;;;;5003117;28;20037;-64
2022/08/13 08:10:06;;;;;;;7.60;7.00;;;;;;;;;;5000512;28;20044;-64
2022/08/13 08:12:35;;;;;;;7.80;7.18;;;;;;;;;;4996810;28;20541;-63
2022/08/13 08:15:01;;;;;;;8.23;7.60;;;;;;;;;;5000046;28;20540;-63
2022/08/13 08:17:27;;;;;;;8.65;8.02;;;;;;;;;;5002885;28;20084;-63
2022/08/13 08:19:52;;;;;;;7.45;6.95;;;;;;;;;;5003524;28;20079;-62
2022/08/13 08:22:18;;;;;;;8.20;7.38;;;;;;;;;;4985349;28;20037;-64
2022/08/13 08:24:48;;;;;;;7.97;7.00;;;;;;;;;;5002563;28;20041;-64
2022/08/13 08:27:16;;;;;;;7.50;7.00;;;;;;;;;;5002198;28;20029;-62
2022/08/13 08:29:41;;;;;;;7.10;6.50;;;;;;;;;;5002729;28;20030;-62
2022/08/13 08:32:10;;;;;;;7.07;6.40;;;;;;;;;;4994354;28;20059;-63
2022/08/13 08:34:36;;;;;;;7.45;6.75;;;;;;;;;;4979290;28;20049;-64
2022/08/13 08:37:01;;;;;;;7.70;7.03;;;;;;;;;;5001662;28;20521;-62
2022/08/13 08:44:59;;;;;;;7.18;6.68;;;;;;;;;;5003206;28;20283;-61
2022/08/13 08:47:28;;;;;;;8.20;7.43;;;;;;;;;;5000766;28;20038;-60
2022/08/13 08:49:55;;;;;;;9.30;8.48;;;;;;;;;;5002385;28;20061;-61
2022/08/13 08:52:21;;;;;;;9.35;8.45;;;;;;;;;;5000815;28;20439;-62
2022/08/13 08:54:46;;;;;;;8.48;7.75;;;;;;;;;;4996592;28;20391;-62
2022/08/13 08:57:12;;;;;;;8.35;7.65;;;;;;;;;;4997699;28;20030;-60
2022/08/13 08:59:41;;;;;;;8.43;7.72;;;;;;;;;;4995537;28;20506;-63
2022/08/13 09:02:17;;;;;;;8.38;7.68;;;;;;;;;;4996337;28;20034;-63
2022/08/13 09:04:43;;;;;;;7.88;7.10;;;;;;;;;;4996728;28;20136;-63
2022/08/13 09:07:09;;;;;;;8.27;7.57;;;;;;;;;;4996504;28;20450;-62
2022/08/13 09:09:34;;;;;;;8.63;7.90;;;;;;;;;;5002235;28;20029;-63
2022/08/13 09:12:00;;;;;;;8.48;7.88;;;;;;;;;;5002049;28;20495;-63
2022/08/13 09:14:26;;;;;;;8.90;8.25;;;;;;;;;;4994495;28;20210;-62
2022/08/13 09:16:53;;;;;;;8.75;8.05;;;;;;;;;;4995933;28;20065;-61
2022/08/13 09:19:19;;;;;;;8.32;7.53;;;;;;;;;;4999804;28;20080;-63
2022/08/13 09:21:45;;;;;;;8.55;7.85;;;;;;;;;;5001593;28;20059;-63
2022/08/13 09:24:12;;;;;;;10.15;8.52;;;;;;;;;;4999765;28;20046;-63
2022/08/13 09:26:38;;;;;;;8.55;7.75;;;;;;;;;;5001739;28;20026;-61
2022/08/13 09:29:04;;;;;;;8.77;8.15;;;;;;;;;;4996846;28;20490;-62
2022/08/13 09:31:29;;;;;;;8.65;7.95;;;;;;;;;;4993926;28;20080;-62
2022/08/13 09:33:55;;;;;;;8.88;8.27;;;;;;;;;;5000963;28;20625;-62
2022/08/13 09:36:22;;;;;;;9.02;8.32;;;;;;;;;;5005949;28;20030;-61
2022/08/13 09:38:48;;;;;;;8.50;7.75;;;;;;;;;;5005010;28;20034;-61
2022/08/13 09:41:17;;;;;;;8.70;7.90;;;;;;;;;;4999856;28;20088;-62
2022/08/13 09:43:44;;;;;;;8.45;7.72;;;;;;;;;;4996609;28;20769;-64
2022/08/13 09:46:10;;;;;;;9.05;8.25;;;;;;;;;;4980248;28;20072;-62
2022/08/13 09:48:36;;;;;;;8.88;8.02;;;;;;;;;;4997450;28;20148;-61
2022/08/13 09:51:04;;;;;;;8.57;7.93;;;;;;;;;;4999401;28;20076;-60
2022/08/13 09:53:29;;;;;;;8.88;8.27;;;;;;;;;;4994457;28;20161;-59
2022/08/13 09:55:55;;;;;;;8.73;8.02;;;;;;;;;;4997644;28;20033;-60
2022/08/13 09:58:22;;;;;;;8.02;7.40;;;;;;;;;;5004240;28;20049;-62
2022/08/13 10:00:48;;;;;;;7.20;6.70;;;;;;;;;;4989511;28;20097;-60
2022/08/13 10:03:14;;;;;;;8.80;8.10;;;;;;;;;;5005725;28;20481;-61
2022/08/13 10:05:39;;;;;;;8.02;7.43;;;;;;;;;;5003242;28;20037;-60
2022/08/13 10:08:06;;;;;;;7.95;7.35;;;;;;;;;;4974334;28;20172;-60
2022/08/13 10:10:31;;;;;;;13.40;12.10;;;;;;;;;;4997997;28;20116;-60
2022/08/13 10:13:00;;;;;;;11.07;10.18;;;;;;;;;;5000517;28;20109;-60
2022/08/13 10:15:26;;;;;;;10.38;9.27;;;;;;;;;;4997781;28;20053;-60
2022/08/13 10:17:53;;;;;;;9.30;8.50;;;;;;;;;;4999227;28;20045;-60
2022/08/13 10:20:20;;;;;;;10.38;9.68;;;;;;;;;;4998823;28;20029;-60
2022/08/13 10:22:45;;;;;;;8.82;8.05;;;;;;;;;;4998284;28;20040;-63
2022/08/13 10:25:11;;;;;;;9.77;8.98;;;;;;;;;;5001311;28;20034;-62
2022/08/13 10:27:36;;;;;;;10.07;9.07;;;;;;;;;;4998512;28;20414;-61
2022/08/13 10:30:03;;;;;;;9.63;8.77;;;;;;;;;;4987318;28;20046;-60
2022/08/13 10:32:28;;;;;;;9.57;8.68;;;;;;;;;;4991009;28;20529;-60
2022/08/13 10:34:54;;;;;;;9.77;8.77;;;;;;;;;;5003210;28;20034;-61
2022/08/13 10:37:21;;;;;;;9.23;8.52;;;;;;;;;;5002330;28;20026;-61
2022/08/13 10:39:47;;;;;;;10.63;8.95;;;;;;;;;;4975461;28;20042;-63
2022/08/13 10:42:12;;;;;;;10.00;9.10;;;;;;;;;;4997954;28;20054;-63
2022/08/13 10:44:38;;;;;;;11.18;10.07;;;;;;;;;;4999423;28;20057;-63
2022/08/13 10:47:04;;;;;;;9.82;8.75;;;;;;;;;;4999208;28;20041;-63
2022/08/13 10:49:29;;;;;;;9.07;8.48;;;;;;;;;;4997328;28;20428;-63
2022/08/13 10:51:54;;;;;;;9.38;8.68;;;;;;;;;;4988738;28;20647;-60
2022/08/13 10:54:20;;;;;;;10.10;9.15;;;;;;;;;;5004515;28;20305;-63
2022/08/13 10:56:45;;;;;;;9.20;8.50;;;;;;;;;;4997979;28;20041;-65
2022/08/13 10:59:11;;;;;;;10.18;9.35;;;;;;;;;;4987748;28;20057;-61
2022/08/13 11:01:36;;;;;;;9.88;8.98;;;;;;;;;;5001156;28;20049;-60
2022/08/13 11:04:02;;;;;;;8.88;8.07;;;;;;;;;;4998184;28;20030;-63
2022/08/13 11:06:27;;;;;;;9.25;8.60;;;;;;;;;;5003729;28;20044;-64
2022/08/13 11:08:59;;;;;;;8.88;8.07;;;;;;;;;;4998658;28;20528;-60
2022/08/13 11:11:24;;;;;;;9.13;8.40;;;;;;;;;;4999977;28;20934;-63
2022/08/13 11:13:50;;;;;;;30.35;10.40;;;;;;;;;;4995486;28;20038;-65
2022/08/13 11:18:59;;;;;;;10.27;9.35;;;;;;;;;;5003301;28;20449;-62
2022/08/13 11:21:25;;;;;;;9.52;8.57;;;;;;;;;;5004828;28;20040;-63
2022/08/13 11:23:50;;;;;;;8.60;7.78;;;;;;;;;;5002733;28;20056;-63
2022/08/13 11:26:16;;;;;;;8.43;7.72;;;;;;;;;;5001988;28;20377;-62
2022/08/13 11:28:41;;;;;;;9.52;8.77;;;;;;;;;;5001341;28;20306;-62
2022/08/13 11:31:06;;;;;;;10.52;9.70;;;;;;;;;;4997156;28;20053;-62
2022/08/13 11:33:31;;;;;;;8.52;7.78;;;;;;;;;;4997157;28;20527;-62
2022/08/13 11:35:56;;;;;;;8.65;7.82;;;;;;;;;;5002390;28;20034;-62
2022/08/13 11:38:22;;;;;;;9.88;8.93;;;;;;;;;;5002523;28;20040;-61
2022/08/13 11:40:53;;;;;;;8.43;7.68;;;;;;;;;;5003527;28;20042;-62
2022/08/13 11:43:22;;;;;;;8.02;7.53;;;;;;;;;;5001622;28;20057;-62
2022/08/13 11:45:49;;;;;;;8.15;7.55;;;;;;;;;;5001218;28;20375;-61
2022/08/13 11:48:15;;;;;;;8.88;8.15;;;;;;;;;;4996502;28;20041;-61
2022/08/13 11:50:40;;;;;;;9.15;8.35;;;;;;;;;;4996527;28;20385;-62
2022/08/13 11:53:05;;;;;;;8.55;7.90;;;;;;;;;;5001947;28;20400;-62
2022/08/13 11:55:30;;;;;;;8.77;8.13;;;;;;;;;;5001471;28;20400;-62
2022/08/13 11:58:03;;;;;;;8.80;8.13;;;;;;;;;;5002382;28;20380;-64
2022/08/13 12:00:28;;;;;;;9.68;8.80;;;;;;;;;;4998555;28;20052;-63
2022/08/13 12:02:53;;;;;;;8.95;8.13;;;;;;;;;;5003538;28;20026;-63
2022/08/13 12:05:19;;;;;;;9.55;8.80;;;;;;;;;;4996805;28;20084;-61
2022/08/13 12:07:44;;;;;;;9.32;8.55;;;;;;;;;;4996554;28;20038;-62
2022/08/13 12:10:10;;;;;;;9.32;8.52;;;;;;;;;;4995324;28;20080;-62
2022/08/13 12:12:35;;;;;;;8.27;7.70;;;;;;;;;;4996724;28;20042;-61
2022/08/13 12:15:00;;;;;;;9.13;8.43;;;;;;;;;;4996564;28;20042;-62
2022/08/13 12:17:27;;;;;;;8.75;8.05;;;;;;;;;;4998321;28;20030;-60
2022/08/13 12:19:52;;;;;;;9.57;8.80;;;;;;;;;;4979975;28;20539;-62
2022/08/13 12:22:17;;;;;;;9.50;8.70;;;;;;;;;;4996947;28;20068;-62
2022/08/13 12:24:43;;;;;;;8.70;7.90;;;;;;;;;;4996219;28;20191;-60
2022/08/13 12:27:08;;;;;;;9.43;8.63;;;;;;;;;;4995763;28;20508;-59
2022/08/13 12:29:33;;;;;;;8.55;7.85;;;;;;;;;;4994757;28;20484;-60
2022/08/13 12:31:58;;;;;;;7.88;7.30;;;;;;;;;;4997298;28;20112;-59
2022/08/13 12:34:23;;;;;;;10.07;8.07;;;;;;;;;;4997733;28;20037;-56
2022/08/13 12:36:49;;;;;;;8.65;7.82;;;;;;;;;;4995998;28;20040;-63
2022/08/13 12:39:14;;;;;;;9.25;8.55;;;;;;;;;;4995209;28;20029;-60
2022/08/13 12:41:39;;;;;;;8.65;7.95;;;;;;;;;;4980734;28;20033;-64
2022/08/13 12:44:04;;;;;;;7.80;7.15;;;;;;;;;;4984143;28;20044;-63
2022/08/13 12:46:30;;;;;;;9.32;8.73;;;;;;;;;;4979874;28;20029;-60
2022/08/13 12:48:55;;;;;;;8.07;7.47;;;;;;;;;;4995805;28;20022;-60
2022/08/13 12:51:20;;;;;;;9.43;8.82;;;;;;;;;;4996265;28;20432;-61
2022/08/13 12:53:45;;;;;;;10.73;9.68;;;;;;;;;;4995929;28;20107;-61
2022/08/13 12:56:11;;;;;;;11.15;9.93;;;;;;;;;;4998078;28;20042;-62
2022/08/13 12:58:37;;;;;;;10.68;9.68;;;;;;;;;;4982343;28;20497;-61
2022/08/13 13:01:02;;;;;;;11.73;10.75;;;;;;;;;;4995453;28;20526;-62
2022/08/13 13:03:27;;;;;;;11.90;10.77;;;;;;;;;;4994951;28;20076;-60
2022/08/13 13:05:53;;;;;;;9.95;9.20;;;;;;;;;;4996089;28;20045;-60
2022/08/13 13:08:25;;;;;;;12.30;9.57;;;;;;;;;;4996628;28;20443;-60
2022/08/13 13:10:51;;;;;;;10.25;9.43;;;;;;;;;;5000396;28;20112;-61
2022/08/13 13:13:18;;;;;;;10.45;9.65;;;;;;;;;;5004758;28;20545;-61
2022/08/13 13:15:44;;;;;;;8.63;7.97;;;;;;;;;;4998917;28;20109;-61
2022/08/13 13:18:12;;;;;;;8.95;8.10;;;;;;;;;;5000055;28;20354;-61
2022/08/13 13:20:41;;;;;;;8.80;8.00;;;;;;;;;;4998408;28;20022;-61
2022/08/13 13:23:06;;;;;;;8.98;8.20;;;;;;;;;;4999295;28;20022;-61
2022/08/13 13:25:32;;;;;;;10.68;8.07;;;;;;;;;;4999798;28;20052;-62
2022/08/13 13:27:57;;;;;;;8.50;7.82;;;;;;;;;;5000173;28;20443;-62
2022/08/13 13:30:22;;;;;;;7.20;6.70;;;;;;;;;;5003929;28;20034;-61
2022/08/13 13:32:48;;;;;;;7.72;6.90;;;;;;;;;;4999428;28;20730;-62
2022/08/13 13:35:13;;;;;;;8.43;7.78;;;;;;;;;;4998897;28;20034;-63
2022/08/13 13:37:39;;;;;;;8.55;7.85;;;;;;;;;;4997849;28;20033;-60
2022/08/13 13:40:05;;;;;;;8.15;7.55;;;;;;;;;;4998517;28;20025;-59
2022/08/13 13:42:30;;;;;;;7.95;7.25;;;;;;;;;;5003125;28;20033;-59
2022/08/13 13:44:57;;;;;;;8.52;7.93;;;;;;;;;;4999610;28;20140;-63
2022/08/13 13:47:22;;;;;;;8.75;7.95;;;;;;;;;;4999209;28;20029;-63
2022/08/13 13:49:48;;;;;;;8.07;7.47;;;;;;;;;;4999767;28;20415;-63
2022/08/13 13:52:13;;;;;;;8.07;7.43;;;;;;;;;;4998924;28;20508;-63
2022/08/13 13:54:38;;;;;;;7.82;7.22;;;;;;;;;;4999973;28;20042;-63
2022/08/13 13:57:04;;;;;;;7.70;7.20;;;;;;;;;;4997203;28;20072;-64
2022/08/13 13:59:29;;;;;;;7.15;6.65;;;;;;;;;;4999911;28;20412;-63
2022/08/13 14:01:54;;;;;;;7.72;7.10;;;;;;;;;;4996866;28;20034;-63
2022/08/13 14:04:19;;;;;;;7.13;6.50;;;;;;;;;;4998661;28;20064;-63
2022/08/13 14:06:45;;;;;;;6.80;6.40;;;;;;;;;;4981057;28;20687;-63
2022/08/13 14:09:10;;;;;;;7.55;6.95;;;;;;;;;;4998955;28;20033;-63
2022/08/13 14:11:36;;;;;;;7.20;6.68;;;;;;;;;;4999034;28;20041;-63
2022/08/13 14:14:01;;;;;;;6.22;5.82;;;;;;;;;;4991326;28;20368;-63
2022/08/13 14:16:27;;;;;;;5.80;5.40;;;;;;;;;;4990752;28;20069;-63
2022/08/13 14:18:53;;;;;;;6.18;5.60;;;;;;;;;;4999387;28;20582;-61
2022/08/13 14:21:21;;;;;;;6.03;5.60;;;;;;;;;;4999400;28;20121;-64
2022/08/13 14:23:47;;;;;;;6.70;6.20;;;;;;;;;;4991032;28;20157;-64
2022/08/13 14:26:12;;;;;;;6.40;5.90;;;;;;;;;;4997544;28;20038;-64
2022/08/13 14:28:42;;;;;;;6.85;6.35;;;;;;;;;;4997526;28;20064;-63
2022/08/13 14:31:10;;;;;;;6.43;6.03;;;;;;;;;;4996150;28;20124;-66
2022/08/13 14:33:38;;;;;;;5.60;5.28;;;;;;;;;;4998014;28;20037;-64
2022/08/13 14:36:03;;;;;;;6.28;5.80;;;;;;;;;;4997154;28;20475;-63
2022/08/13 14:38:28;;;;;;;7.35;6.72;;;;;;;;;;4993785;28;20049;-63
2022/08/13 14:40:53;;;;;;;6.85;6.35;;;;;;;;;;4996047;28;20037;-64
2022/08/13 14:43:19;;;;;;;7.00;6.50;;;;;;;;;;4998066;28;20113;-64
2022/08/13 14:45:47;;;;;;;6.82;6.32;;;;;;;;;;4997867;28;20383;-64
2022/08/13 14:48:20;;;;;;;7.65;6.95;;;;;;;;;;4999526;28;20380;-64
2022/08/13 14:50:46;;;;;;;7.13;6.63;;;;;;;;;;4998129;28;20052;-64
2022/08/13 14:53:12;;;;;;;7.28;6.78;;;;;;;;;;4997806;28;20038;-64
2022/08/13 14:55:38;;;;;;;8.18;7.55;;;;;;;;;;5001037;28;20048;-65
2022/08/13 14:58:04;;;;;;;6.53;6.00;;;;;;;;;;4983356;28;20465;-64
2022/08/13 15:00:30;;;;;;;8.25;7.35;;;;;;;;;;4997945;28;20095;-65